createdAt,value
2022-09-07T00:02:55.579Z,263.17098
2022-09-07T00:07:57.640Z,258.28571
2022-09-07T00:12:59.446Z,248.9505
2022-09-07T00:18:01.339Z,244.4878
2022-09-07T00:23:03.275Z,256.69036
2022-09-07T00:28:05.202Z,256.69036
2022-09-07T00:33:06.712Z,263.17098
2022-09-07T00:38:08.441Z,264.83333
2022-09-07T00:43:10.202Z,258.28571
2022-09-07T00:48:11.751Z,255.11111
2022-09-07T00:53:13.741Z,269.92593
2022-09-07T00:58:15.542Z,271.65957
2022-09-07T01:03:17.312Z,268.21053
2022-09-07T01:08:19.236Z,266.51309
2022-09-07T01:13:21.140Z,256.69036
2022-09-07T01:18:22.835Z,259.89744
2022-09-07T01:23:24.560Z,244.4878
2022-09-07T01:28:26.470Z,243.02913
2022-09-07T01:33:28.366Z,250.46766
2022-09-07T01:38:30.380Z,256.69036
2022-09-07T01:43:32.169Z,253.54774
2022-09-07T01:48:33.943Z,252
2022-09-07T01:53:35.727Z,244.4878
2022-09-07T01:58:37.427Z,250.46766
2022-09-07T02:03:39.147Z,250.46766
2022-09-07T02:08:41.001Z,250.46766
2022-09-07T02:13:43.008Z,243.02913
2022-09-07T02:18:44.880Z,240.15385
2022-09-07T02:23:46.668Z,235.94313
2022-09-07T02:28:48.468Z,227.87097
2022-09-07T02:33:50.240Z,224
2022-09-07T02:38:52.285Z,226.56881
2022-09-07T02:43:54.038Z,210.66667
2022-09-07T02:48:55.707Z,187.47826
2022-09-07T02:53:57.452Z,179.1145
2022-09-07T02:58:59.201Z,165.58273
2022-09-07T03:04:00.940Z,172.99628
2022-09-07T03:09:02.968Z,165.58273
2022-09-07T03:14:04.491Z,161.66784
2022-09-07T03:19:06.334Z,150.02007
2022-09-07T03:24:07.952Z,151.40741
2022-09-07T03:29:09.437Z,157.88889
2022-09-07T03:34:10.897Z,163.21708
2022-09-07T03:39:12.601Z,172.14815
2022-09-07T03:44:14.076Z,183.68872
2022-09-07T03:49:15.678Z,180.92308
2022-09-07T03:54:17.102Z,176.45283
2022-09-07T03:59:18.594Z,173.85075
2022-09-07T04:04:20.183Z,170.47059
2022-09-07T04:09:21.847Z,154.23891
2022-09-07T04:14:23.283Z,144.65147
2022-09-07T04:19:24.768Z,152.10811
2022-09-07T04:24:26.336Z,140.17834
2022-09-07T04:29:27.857Z,139.55556
2022-09-07T04:34:29.354Z,145.30719
2022-09-07T04:39:31.002Z,143.35275
2022-09-07T04:44:32.500Z,145.96721
2022-09-07T04:49:34.062Z,155.68385
2022-09-07T04:54:35.527Z,160.90141
2022-09-07T04:59:37.209Z,169.64103
2022-09-07T05:04:38.825Z,169.64103
2022-09-07T05:09:40.603Z,164.78853
2022-09-07T05:14:42.453Z,163.21708
2022-09-07T05:19:44.143Z,173.85075
2022-09-07T05:24:46.199Z,178.22053
2022-09-07T05:30:04.458Z,186.51969
2022-09-07T05:35:06.893Z,180.92308
2022-09-07T05:40:08.671Z,160.90141
2022-09-07T05:45:10.507Z,176.45283
2022-09-07T05:50:12.319Z,173.85075
2022-09-07T05:55:29.405Z,195.42857
2022-09-07T06:00:32.773Z,195.42857
2022-09-07T06:05:34.730Z,195.42857
2022-09-07T06:10:44.425Z,200.66667
2022-09-07T06:15:46.934Z,202.82353
2022-09-07T06:20:48.722Z,199.60166
2022-09-07T06:25:50.569Z,198.54545
2022-09-07T06:30:52.454Z,211.82609
2022-09-07T06:35:54.436Z,209.51724
2022-09-07T06:52:02.859Z,216.56637
2022-09-07T06:57:04.677Z,226.56881
2022-09-07T07:02:06.502Z,220.23318
2022-09-07T07:07:08.164Z,237.33333
2022-09-07T07:12:10.122Z,250.46766
2022-09-07T07:17:11.570Z,266.51309
2022-09-07T07:27:25.548Z,317.33333
2022-09-07T07:32:27.340Z,306.35294
2022-09-07T07:37:28.795Z,319.60976
2022-09-07T07:42:30.735Z,296
2022-09-07T07:47:32.432Z,300.06936
2022-09-07T07:58:05.990Z,321.91411
2022-09-07T08:03:07.690Z,306.35294
2022-09-07T08:08:09.267Z,310.66667
2022-09-07T08:13:11.129Z,338.87179
2022-09-07T08:18:12.708Z,407.15789
2022-09-07T08:23:14.393Z,324.24691
2022-09-07T08:28:16.079Z,384
2022-09-07T08:33:17.570Z,400.2963
2022-09-07T08:38:21.057Z,436.8
2022-09-07T08:43:23.314Z,429.03937
2022-09-07T08:48:25.286Z,466.0339
2022-09-07T08:53:27.001Z,592.42105
2022-09-07T08:58:48.077Z,498.95495
2022-09-07T09:04:16.610Z,628.44444
2022-09-07T09:09:18.708Z,592.42105
2022-09-07T09:14:20.816Z,599.31915
2022-09-07T09:19:22.550Z,704.49383
2022-09-07T09:24:24.299Z,799.55556
2022-09-07T09:29:26.221Z,733.74359
2022-09-07T09:34:31.246Z,723.74684
2022-09-07T09:39:35.377Z,836.75362
2022-09-07T09:44:37.537Z,921.77778
2022-09-07T09:49:39.343Z,799.55556
2022-09-07T09:54:41.228Z,891.69231
2022-09-07T10:00:02.669Z,1106.26415
2022-09-07T10:05:06.000Z,811.60563
2022-09-07T10:10:07.935Z,1064
2022-09-07T10:15:09.579Z,1064
2022-09-07T10:20:11.071Z,1128.61538
2022-09-07T10:25:12.540Z,1176
2022-09-07T10:30:14.321Z,1446.43902
2022-09-07T10:35:15.873Z,1446.43902
2022-09-07T10:40:17.392Z,1565.05263
2022-09-07T10:45:19.214Z,2068.13793
2022-09-07T10:50:22.303Z,1810.66667
2022-09-07T10:55:24.476Z,1704
2022-09-07T11:00:26.260Z,1446.43902
2022-09-07T11:05:32.768Z,1810.66667
2022-09-07T11:10:37.195Z,1810.66667
2022-09-07T11:15:39.314Z,1655.11111
2022-09-07T11:20:41.241Z,1755.76471
2022-09-07T11:25:43.079Z,2225.48148
2022-09-07T11:30:45.049Z,1931.09677
2022-09-07T11:35:46.861Z,2144
2022-09-07T11:40:48.615Z,1755.76471
2022-09-07T11:45:50.635Z,1997.33333
2022-09-07T11:50:52.574Z,2408
2022-09-07T11:55:54.255Z,2510.66667
2022-09-07T12:00:56.082Z,2144
2022-09-07T12:05:58.072Z,2225.48148
2022-09-07T12:10:59.800Z,2877.33333
2022-09-07T12:16:02.124Z,2313.23077
2022-09-07T12:21:03.969Z,3186.10526
2022-09-07T12:26:05.804Z,2510.66667
2022-09-07T12:31:07.569Z,2068.13793
2022-09-07T12:36:09.305Z,2744
2022-09-07T12:41:10.786Z,2744
2022-09-07T12:46:12.750Z,2225.48148
2022-09-07T12:51:14.811Z,3186.10526
2022-09-07T12:56:17.065Z,3366.22222
2022-09-07T13:01:19.111Z,2744
2022-09-07T13:07:01.782Z,2877.33333
2022-09-07T13:12:03.697Z,3024
2022-09-07T13:17:17.593Z,3186.10526
2022-09-07T13:22:19.380Z,2408
2022-09-07T13:27:20.868Z,2510.66667
2022-09-07T13:32:22.615Z,3024
2022-09-07T13:37:24.310Z,2408
2022-09-07T13:42:26.106Z,2877.33333
2022-09-07T13:47:28.103Z,2225.48148
2022-09-07T13:52:30.255Z,2313.23077
2022-09-07T13:57:32.157Z,1655.11111
2022-09-07T14:02:34.185Z,2622.26087
2022-09-07T14:07:36.053Z,2408
2022-09-07T14:12:37.861Z,2068.13793
2022-09-07T14:17:40.262Z,1655.11111
2022-09-07T14:22:42.031Z,2408
2022-09-07T14:27:43.817Z,2313.23077
2022-09-07T14:32:45.435Z,2313.23077
2022-09-07T14:37:47.336Z,2068.13793
2022-09-07T14:42:49.896Z,2408
2022-09-07T14:47:52.440Z,2068.13793
2022-09-07T14:58:26.197Z,2408
2022-09-07T15:03:27.998Z,2144
2022-09-07T15:08:29.529Z,1755.76471
2022-09-07T15:13:31.119Z,1344
2022-09-07T15:18:32.981Z,1869
2022-09-07T15:23:34.435Z,1446.43902
2022-09-07T15:34:08.260Z,988.0678
2022-09-07T15:39:10.273Z,836.75362
2022-09-07T15:44:13.718Z,906.5
2022-09-07T15:49:15.595Z,1254.6383
2022-09-07T15:54:17.055Z,970.66667
2022-09-07T15:59:18.649Z,668.70588
2022-09-07T16:04:23.530Z,417.84615
2022-09-07T16:09:25.268Z,547.92157
2022-09-07T16:14:26.693Z,744
2022-09-07T16:19:28.360Z,636.13483
2022-09-07T16:24:30.109Z,668.70588
2022-09-07T16:29:32.123Z,579.05155
2022-09-07T16:34:33.981Z,354.66667
2022-09-07T16:39:35.820Z,336.35669
2022-09-07T16:44:37.587Z,421.51938
2022-09-07T16:49:39.727Z,606.36559
2022-09-07T16:54:41.695Z,585.66667
2022-09-07T16:59:43.214Z,714
2022-09-07T17:04:44.969Z,787.83562
2022-09-07T17:09:46.751Z,660.27907
2022-09-07T17:14:48.492Z,457.33333
2022-09-07T17:19:50.887Z,536.30769
2022-09-07T17:24:54.638Z,403.70149
2022-09-07T17:29:56.420Z,374.76923
2022-09-07T17:34:58.311Z,457.33333
2022-09-07T17:40:00.217Z,566.22222
2022-09-07T17:45:02.242Z,566.22222
2022-09-07T17:50:04.511Z,695.21951
2022-09-07T17:55:06.330Z,566.22222
2022-09-07T18:00:11.212Z,620.92308
2022-09-07T18:05:13.592Z,514.37037
2022-09-07T18:10:15.029Z,542.05825
2022-09-07T18:15:16.479Z,599.31915
2022-09-07T18:20:19.156Z,599.31915
2022-09-07T18:25:20.768Z,514.37037
2022-09-07T18:30:22.375Z,525.13208
2022-09-07T18:35:24.009Z,525.13208
2022-09-07T18:40:25.581Z,628.44444
2022-09-07T18:45:28.030Z,599.31915
2022-09-07T18:50:30.064Z,566.22222
2022-09-07T18:55:32.370Z,572.57143
2022-09-07T19:00:33.973Z,547.92157
2022-09-07T19:05:52.560Z,566.22222
2022-09-07T19:10:54.769Z,542.05825
2022-09-07T19:15:56.621Z,519.70093
2022-09-07T19:20:58.519Z,484.35088
2022-09-07T19:26:00.107Z,453.09091
2022-09-07T19:31:01.566Z,475.03448
2022-09-07T19:36:03.222Z,479.65217
2022-09-07T19:41:04.901Z,479.65217
2022-09-07T19:46:06.469Z,453.09091
2022-09-07T19:51:08.279Z,429.03937
2022-09-07T19:56:10.040Z,396.94118
2022-09-07T20:01:11.640Z,417.84615
2022-09-07T20:06:13.166Z,432.88889
2022-09-07T20:11:14.713Z,403.70149
2022-09-07T20:16:16.283Z,429.03937
2022-09-07T20:21:18.073Z,414.22901
2022-09-07T20:26:19.954Z,400.2963
2022-09-07T20:31:21.518Z,384
2022-09-07T20:36:23.150Z,357.42282
2022-09-07T20:41:25.000Z,357.42282
2022-09-07T20:46:26.536Z,346.61438
2022-09-07T20:51:28.473Z,341.41935
2022-09-07T20:56:30.122Z,308.49704
2022-09-07T21:01:32.064Z,349.26316
2022-09-07T21:06:34.167Z,331.42138
2022-09-07T21:11:35.950Z,304.23392
2022-09-07T21:16:37.676Z,326.6087
2022-09-07T21:21:39.741Z,336.35669
2022-09-07T21:26:41.505Z,374.76923
2022-09-07T21:31:43.580Z,349.26316
2022-09-07T21:36:45.455Z,387.16547
2022-09-07T21:41:48.143Z,407.15789
2022-09-07T21:46:51.450Z,384
2022-09-07T21:51:53.573Z,470.49573
2022-09-07T21:56:55.577Z,509.13761
2022-09-07T22:01:57.555Z,470.49573
2022-09-07T22:06:59.421Z,470.49573
2022-09-07T22:12:01.391Z,440.77419
2022-09-07T22:17:03.250Z,448.91803
2022-09-07T22:22:05.300Z,457.33333
2022-09-07T22:27:07.044Z,410.66667
2022-09-07T22:32:08.801Z,410.66667
2022-09-07T22:37:10.908Z,396.94118
2022-09-07T22:42:12.799Z,393.63504
2022-09-07T22:47:14.580Z,448.91803
2022-09-07T22:52:16.863Z,448.91803
2022-09-07T22:57:18.502Z,421.51938
2022-09-07T23:02:20.357Z,453.09091
2022-09-07T23:07:22.093Z,421.51938
2022-09-07T23:12:23.754Z,410.66667
2022-09-07T23:17:25.621Z,380.87943
2022-09-07T23:22:27.789Z,371.77778
2022-09-07T23:27:29.687Z,336.35669
2022-09-07T23:32:31.534Z,384
2022-09-07T23:37:33.819Z,363.04762
2022-09-07T23:42:35.833Z,338.87179
2022-09-07T23:47:37.913Z,331.42138
2022-09-07T23:52:39.882Z,324.24691
2022-09-07T23:57:41.885Z,306.35294
